createdAt,value
2017-06-24T00:00:32.743Z,20.14
2017-06-24T00:01:42.985Z,20.11
2017-06-24T00:02:53.234Z,20.11
2017-06-24T00:04:03.160Z,20.14
2017-06-24T00:05:13.397Z,20.14
2017-06-24T00:06:23.580Z,20.1
2017-06-24T00:07:33.829Z,20.12
2017-06-24T00:08:44.073Z,20.14
2017-06-24T00:09:54.002Z,20.18
2017-06-24T00:11:03.937Z,20.17
2017-06-24T00:12:14.429Z,20.11
2017-06-24T00:13:24.671Z,20.18
2017-06-24T00:14:34.915Z,20.1
2017-06-24T00:15:45.159Z,20.08
2017-06-24T00:16:55.399Z,20.14
2017-06-24T00:18:05.892Z,20.07
2017-06-24T00:19:15.831Z,20.04
2017-06-24T00:20:26.105Z,20.04
2017-06-24T00:21:36.047Z,20.02
2017-06-24T00:22:45.973Z,20.08
2017-06-24T00:23:56.478Z,20.02
2017-06-24T00:25:06.114Z,20.02
2017-06-24T00:26:16.359Z,20
2017-06-24T00:27:26.599Z,20
2017-06-24T00:28:36.833Z,19.87
2017-06-24T00:29:47.334Z,19.87
2017-06-24T00:30:57.575Z,19.78
2017-06-24T00:32:07.817Z,19.82
2017-06-24T00:33:17.439Z,19.81
2017-06-24T00:34:27.679Z,19.78
2017-06-24T00:35:37.874Z,19.81
2017-06-24T00:36:48.116Z,19.84
2017-06-24T00:37:58.353Z,19.84
2017-06-24T00:39:08.584Z,19.81
2017-06-24T00:40:18.828Z,19.79
2017-06-24T00:41:29.316Z,19.75
2017-06-24T00:42:39.566Z,19.71
2017-06-24T00:43:49.500Z,19.75
2017-06-24T00:44:59.746Z,19.84
2017-06-24T00:46:09.985Z,19.87
2017-06-24T00:47:20.465Z,19.81
2017-06-24T00:48:30.706Z,19.78
2017-06-24T00:49:40.951Z,19.84
2017-06-24T00:50:51.201Z,19.7
2017-06-24T00:52:01.444Z,19.67
2017-06-24T00:53:11.959Z,19.72
2017-06-24T00:54:21.882Z,19.66
2017-06-24T00:55:31.812Z,19.7
2017-06-24T00:56:42.043Z,19.72
2017-06-24T00:57:51.974Z,19.67
2017-06-24T00:59:02.858Z,19.66
2017-06-24T01:00:13.097Z,19.66
2017-06-24T01:01:23.022Z,19.67
2017-06-24T01:02:33.268Z,19.64
2017-06-24T01:03:43.512Z,19.66
2017-06-24T01:04:53.695Z,19.71
2017-06-24T01:06:03.645Z,19.7
2017-06-24T01:07:13.892Z,19.72
2017-06-24T01:08:24.129Z,19.75
2017-06-24T01:09:34.368Z,19.71
2017-06-24T01:10:44.891Z,19.74
2017-06-24T01:11:55.130Z,19.78
2017-06-24T01:13:04.745Z,19.75
2017-06-24T01:14:14.364Z,19.89
2017-06-24T01:15:24.590Z,19.89
2017-06-24T01:16:35.085Z,19.85
2017-06-24T01:17:45.023Z,19.84
2017-06-24T01:18:55.268Z,19.93
2017-06-24T01:20:05.502Z,19.85
2017-06-24T01:21:15.733Z,19.85
2017-06-24T01:22:26.218Z,19.87
2017-06-24T01:23:36.148Z,19.89
2017-06-24T01:24:46.395Z,19.85
2017-06-24T01:25:56.634Z,19.82
2017-06-24T01:27:06.886Z,19.82
2017-06-24T01:28:17.067Z,19.78
2017-06-24T01:29:27.306Z,19.75
2017-06-24T01:30:37.546Z,19.85
2017-06-24T01:31:47.481Z,19.81
2017-06-24T01:32:57.719Z,19.72
2017-06-24T01:34:07.901Z,19.82
2017-06-24T01:35:18.132Z,19.67
2017-06-24T01:36:28.063Z,19.7
2017-06-24T01:37:37.681Z,19.67
2017-06-24T01:38:47.319Z,19.63
2017-06-24T01:39:57.503Z,19.53
2017-06-24T01:41:07.736Z,19.56
2017-06-24T01:42:17.974Z,19.57
2017-06-24T01:43:27.290Z,19.55
2017-06-24T01:44:37.536Z,19.57
2017-06-24T01:45:47.718Z,19.52
2017-06-24T01:46:57.654Z,19.48
2017-06-24T01:48:07.579Z,19.39
2017-06-24T01:49:17.507Z,19.35
2017-06-24T01:50:27.747Z,19.38
2017-06-24T01:51:38.244Z,19.3
2017-06-24T01:52:48.476Z,19.32
2017-06-24T01:53:58.406Z,19.32
2017-06-24T01:55:08.650Z,19.26
2017-06-24T01:56:18.588Z,19.15
2017-06-24T01:57:29.081Z,19.11
2017-06-24T01:58:39.324Z,19.05
2017-06-24T01:59:49.257Z,19.12
2017-06-24T02:00:59.510Z,18.94
2017-06-24T02:02:09.751Z,18.94
2017-06-24T02:03:19.930Z,19.01
2017-06-24T02:04:30.173Z,19.04
2017-06-24T02:05:40.423Z,19.07
2017-06-24T02:06:50.657Z,19.04
2017-06-24T02:08:00.899Z,19.01
2017-06-24T02:09:11.085Z,19.08
2017-06-24T02:10:21.333Z,19.08
2017-06-24T02:11:31.575Z,19.01
2017-06-24T02:12:41.805Z,18.98
2017-06-24T02:13:52.040Z,19.01
2017-06-24T02:15:02.262Z,19.04
2017-06-24T02:16:12.190Z,18.98
2017-06-24T02:17:22.113Z,19
2017-06-24T02:18:32.349Z,19.04
2017-06-24T02:19:42.591Z,19.04
2017-06-24T02:20:52.159Z,19.05
2017-06-24T02:22:02.414Z,18.98
2017-06-24T02:23:12.659Z,19.01
2017-06-24T02:24:22.890Z,19.04
2017-06-24T02:25:33.129Z,19.07
2017-06-24T02:26:43.309Z,19.07
2017-06-24T02:27:53.540Z,19.07
2017-06-24T02:29:03.788Z,19.04
2017-06-24T02:30:13.716Z,19.05
2017-06-24T02:31:23.649Z,19.09
2017-06-24T02:32:33.533Z,19.09
2017-06-24T02:33:43.768Z,19.01
2017-06-24T02:34:53.404Z,19.04
2017-06-24T02:36:03.651Z,19.07
2017-06-24T02:37:13.922Z,18.98
2017-06-24T02:38:24.408Z,18.94
2017-06-24T02:39:34.639Z,18.96
2017-06-24T02:40:44.873Z,18.88
2017-06-24T02:41:55.116Z,18.91
2017-06-24T02:43:05.362Z,18.91
2017-06-24T02:44:15.854Z,18.92
2017-06-24T02:45:26.106Z,18.89
2017-06-24T02:46:36.343Z,18.89
2017-06-24T02:47:46.585Z,18.94
2017-06-24T02:48:56.512Z,18.89
2017-06-24T02:50:07.007Z,18.88
2017-06-24T02:51:17.243Z,18.83
2017-06-24T02:52:27.479Z,18.85
2017-06-24T02:53:37.718Z,18.88
2017-06-24T02:54:47.648Z,18.89
2017-06-24T02:55:57.210Z,18.86
2017-06-24T02:57:07.442Z,18.78
2017-06-24T02:58:17.686Z,18.73
2017-06-24T02:59:27.917Z,18.81
2017-06-24T03:00:37.859Z,18.82
2017-06-24T03:01:48.338Z,18.73
2017-06-24T03:02:58.569Z,18.71
2017-06-24T03:04:08.802Z,18.7
2017-06-24T03:05:19.050Z,18.71
2017-06-24T03:06:29.296Z,18.73
2017-06-24T03:07:39.790Z,18.78
2017-06-24T03:08:49.724Z,18.71
2017-06-24T03:09:59.959Z,18.71
2017-06-24T03:11:10.199Z,18.73
2017-06-24T03:12:20.438Z,18.7
2017-06-24T03:13:30.930Z,18.61
2017-06-24T03:14:41.165Z,18.6
2017-06-24T03:15:51.095Z,18.55
2017-06-24T03:17:01.346Z,18.61
2017-06-24T03:18:11.593Z,18.64
2017-06-24T03:19:22.133Z,18.64
2017-06-24T03:20:32.367Z,18.55
2017-06-24T03:21:42.624Z,18.57
2017-06-24T03:22:52.865Z,18.45
2017-06-24T03:24:03.102Z,18.52
2017-06-24T03:25:13.593Z,18.52
2017-06-24T03:26:23.828Z,18.45
2017-06-24T03:27:34.059Z,18.42
2017-06-24T03:28:44.292Z,18.39
2017-06-24T03:29:54.225Z,18.34
2017-06-24T03:31:04.756Z,18.34
2017-06-24T03:32:14.689Z,18.28
2017-06-24T03:33:24.926Z,18.21
2017-06-24T03:34:35.189Z,18.26
2017-06-24T03:35:45.120Z,18.23
2017-06-24T03:36:55.312Z,18.18
2017-06-24T03:38:05.546Z,18.24
2017-06-24T03:39:15.781Z,18.21
2017-06-24T03:40:25.715Z,18.27
2017-06-24T03:41:35.963Z,18.21
2017-06-24T03:42:46.459Z,18.23
2017-06-24T03:43:55.767Z,18.23
2017-06-24T03:45:06.015Z,18.12
2017-06-24T03:46:16.254Z,18.16
2017-06-24T03:47:26.497Z,18.21
2017-06-24T03:48:37.003Z,18.15
2017-06-24T03:49:47.260Z,18.12
2017-06-24T03:50:57.505Z,18.09
2017-06-24T03:52:07.736Z,18.08
2017-06-24T03:53:17.658Z,18.13
2017-06-24T03:54:28.152Z,18.12
2017-06-24T03:55:38.402Z,18.09
2017-06-24T03:56:48.023Z,18.08
2017-06-24T03:57:58.279Z,18.11
2017-06-24T03:59:08.520Z,18.06
2017-06-24T04:00:19.015Z,18.02
2017-06-24T04:01:29.255Z,18.03
2017-06-24T04:02:38.871Z,18.06
2017-06-24T04:03:49.107Z,18.06
2017-06-24T04:04:59.356Z,18.08
2017-06-24T04:06:09.845Z,18.05
2017-06-24T04:07:20.085Z,17.95
2017-06-24T04:08:30.331Z,18.08
2017-06-24T04:09:40.568Z,18.03
2017-06-24T04:10:50.805Z,18.02
2017-06-24T04:12:00.983Z,18.11
2017-06-24T04:13:10.913Z,18.09
2017-06-24T04:14:21.147Z,18.08
2017-06-24T04:15:31.385Z,18.03
2017-06-24T04:16:41.628Z,17.97
2017-06-24T04:17:52.126Z,17.98
2017-06-24T04:19:02.058Z,18.02
2017-06-24T04:20:12.287Z,17.97
2017-06-24T04:21:22.525Z,18.03
2017-06-24T04:22:32.773Z,17.95
2017-06-24T04:23:43.313Z,18
2017-06-24T04:24:53.544Z,17.98
2017-06-24T04:26:03.784Z,18
2017-06-24T04:27:13.717Z,18.02
2017-06-24T04:28:23.949Z,17.97
2017-06-24T04:29:34.428Z,18.02
2017-06-24T04:30:44.661Z,18
2017-06-24T04:31:54.903Z,17.98
2017-06-24T04:33:05.148Z,17.98
2017-06-24T04:34:15.387Z,18
2017-06-24T04:35:25.887Z,17.95
2017-06-24T04:36:36.121Z,17.98
2017-06-24T04:37:46.355Z,17.97
2017-06-24T04:38:56.596Z,17.95
2017-06-24T04:40:06.842Z,17.95
2017-06-24T04:41:17.375Z,18
2017-06-24T04:42:27.611Z,17.94
2017-06-24T04:43:37.858Z,18
2017-06-24T04:44:48.098Z,17.97
2017-06-24T04:45:58.337Z,17.94
2017-06-24T04:47:08.888Z,17.93
2017-06-24T04:48:18.818Z,17.93
2017-06-24T04:49:29.056Z,17.86
2017-06-24T04:50:39.297Z,17.86
2017-06-24T04:51:49.539Z,17.79
2017-06-24T04:53:00.034Z,17.86
2017-06-24T04:54:10.273Z,17.71
2017-06-24T04:55:20.209Z,17.73
2017-06-24T04:56:30.442Z,17.73
2017-06-24T04:57:40.371Z,17.72
2017-06-24T04:58:50.865Z,17.76
2017-06-24T05:00:01.101Z,17.68
2017-06-24T05:01:11.357Z,17.72
2017-06-24T05:02:21.320Z,17.66
2017-06-24T05:03:31.241Z,17.68
2017-06-24T05:04:41.727Z,17.69
2017-06-24T05:05:51.970Z,17.69
2017-06-24T05:07:01.905Z,17.69
2017-06-24T05:08:12.150Z,17.68
2017-06-24T05:09:22.383Z,17.65
2017-06-24T05:10:32.876Z,17.71
2017-06-24T05:11:42.806Z,17.69
2017-06-24T05:12:53.062Z,17.65
2017-06-24T05:14:02.991Z,17.63
2017-06-24T05:15:12.913Z,17.66
2017-06-24T05:16:23.405Z,17.75
2017-06-24T05:17:33.651Z,17.71
2017-06-24T05:18:43.902Z,17.78
2017-06-24T05:19:54.138Z,17.72
2017-06-24T05:21:04.398Z,17.75
2017-06-24T05:22:14.886Z,17.72
2017-06-24T05:23:25.122Z,17.79
2017-06-24T05:24:35.063Z,17.78
2017-06-24T05:25:45.305Z,17.75
2017-06-24T05:26:55.244Z,17.69
2017-06-24T05:28:05.419Z,17.79
2017-06-24T05:29:15.664Z,17.84
2017-06-24T05:30:25.900Z,17.86
2017-06-24T05:31:36.144Z,17.86
2017-06-24T05:32:46.377Z,17.95
2017-06-24T05:33:56.874Z,18.03
2017-06-24T05:35:06.808Z,18.02
2017-06-24T05:36:17.038Z,18.03
2017-06-24T05:37:27.318Z,18
2017-06-24T05:38:37.251Z,17.97
2017-06-24T05:39:47.740Z,17.95
2017-06-24T05:40:57.977Z,18.06
2017-06-24T05:42:08.214Z,17.97
2017-06-24T05:43:18.465Z,18
2017-06-24T05:44:28.694Z,18.05
2017-06-24T05:45:38.929Z,17.98
2017-06-24T05:46:48.856Z,18.02
2017-06-24T05:47:59.111Z,18
2017-06-24T05:49:09.359Z,17.98
2017-06-24T05:50:19.605Z,18.03
2017-06-24T05:51:30.098Z,18.05
2017-06-24T05:52:40.346Z,18.09
2017-06-24T05:53:50.576Z,18.15
2017-06-24T05:55:00.814Z,18.19
2017-06-24T05:56:11.050Z,18.31
2017-06-24T05:57:21.568Z,18.34
2017-06-24T05:58:31.821Z,18.36
2017-06-24T05:59:41.745Z,18.45
2017-06-24T06:00:51.985Z,18.52
2017-06-24T06:02:02.227Z,18.6
2017-06-24T06:03:12.713Z,18.64
2017-06-24T06:04:22.645Z,18.67
2017-06-24T06:05:32.893Z,18.61
2017-06-24T06:06:43.134Z,18.58
2017-06-24T06:07:53.370Z,18.58
2017-06-24T06:09:03.858Z,18.74
2017-06-24T06:10:14.101Z,18.58
2017-06-24T06:11:24.344Z,18.73
2017-06-24T06:12:34.599Z,18.73
2017-06-24T06:13:44.535Z,18.74
2017-06-24T06:14:54.717Z,18.76
2017-06-24T06:16:04.955Z,18.73
2017-06-24T06:17:15.195Z,18.78
2017-06-24T06:18:25.439Z,18.81
2017-06-24T06:19:35.691Z,18.98
2017-06-24T06:20:46.182Z,18.91
2017-06-24T06:21:56.437Z,18.92
2017-06-24T06:23:06.687Z,18.92
2017-06-24T06:24:16.017Z,18.85
2017-06-24T06:25:26.265Z,18.83
2017-06-24T06:26:36.758Z,18.73
2017-06-24T06:27:46.995Z,18.63
2017-06-24T06:28:57.247Z,18.33
2017-06-24T06:30:07.189Z,18.27
2017-06-24T06:31:17.430Z,18.19
2017-06-24T06:32:27.926Z,18.27
2017-06-24T06:33:38.174Z,18.26
2017-06-24T06:34:48.406Z,18.26
2017-06-24T06:35:58.341Z,18.24
2017-06-24T06:37:08.278Z,18.37
2017-06-24T06:38:18.775Z,18.3
2017-06-24T06:39:29.012Z,18.39
2017-06-24T06:40:39.247Z,18.37
2017-06-24T06:41:49.201Z,18.36
2017-06-24T06:42:59.443Z,18.39
2017-06-24T06:44:09.625Z,18.39
2017-06-24T06:45:19.872Z,18.31
2017-06-24T06:46:30.120Z,18.39
2017-06-24T06:47:40.064Z,18.34
2017-06-24T06:48:50.316Z,18.37
2017-06-24T06:50:00.504Z,18.3
2017-06-24T06:51:10.431Z,18.28
2017-06-24T06:52:20.362Z,18.21
2017-06-24T06:53:30.608Z,18.24
2017-06-24T06:54:40.842Z,18.23
2017-06-24T06:55:51.036Z,18.26
2017-06-24T06:57:01.277Z,18.24
2017-06-24T06:58:11.519Z,18.24
2017-06-24T06:59:21.749Z,18.31
2017-06-24T07:00:32.000Z,18.45
2017-06-24T07:01:42.195Z,18.45
2017-06-24T07:02:51.817Z,18.51
2017-06-24T07:04:02.096Z,18.49
2017-06-24T07:05:12.346Z,18.37
2017-06-24T07:06:22.586Z,18.45
2017-06-24T07:07:32.837Z,18.34
2017-06-24T07:08:43.085Z,18.45
2017-06-24T07:09:53.315Z,18.34
2017-06-24T07:11:02.988Z,18.39
2017-06-24T07:12:13.242Z,18.36
2017-06-24T07:13:23.733Z,18.45
2017-06-24T07:14:33.970Z,18.52
2017-06-24T07:15:44.220Z,18.55
2017-06-24T07:16:54.464Z,18.57
2017-06-24T07:18:04.710Z,18.57
2017-06-24T07:19:15.205Z,18.55
2017-06-24T07:20:25.442Z,18.64
2017-06-24T07:21:35.077Z,18.7
2017-06-24T07:22:45.006Z,18.71
2017-06-24T07:23:55.269Z,18.82
2017-06-24T07:25:05.766Z,18.89
2017-06-24T07:26:16.022Z,18.85
2017-06-24T07:27:26.267Z,18.88
2017-06-24T07:28:36.499Z,18.94
2017-06-24T07:29:46.434Z,19
2017-06-24T07:30:56.623Z,19.05
2017-06-24T07:32:06.857Z,19.17
2017-06-24T07:33:17.095Z,19.17
2017-06-24T07:34:27.330Z,19.29
2017-06-24T07:35:37.578Z,19.32
2017-06-24T07:36:48.081Z,19.48
2017-06-24T07:37:58.329Z,19.44
2017-06-24T07:39:08.579Z,19.32
2017-06-24T07:40:18.820Z,19.37
2017-06-24T07:41:29.056Z,19.52
2017-06-24T07:42:39.241Z,19.42
2017-06-24T07:43:49.480Z,19.47
2017-06-24T07:44:59.727Z,19.48
2017-06-24T07:46:09.668Z,19.37
2017-06-24T07:47:19.921Z,19.34
2017-06-24T07:48:30.415Z,19.29
2017-06-24T07:49:40.658Z,19.29
2017-06-24T07:50:50.906Z,19.24
2017-06-24T07:52:00.838Z,19.26
2017-06-24T07:53:11.086Z,19.35
2017-06-24T07:54:21.270Z,19.34
2017-06-24T07:55:31.226Z,19.29
2017-06-24T07:56:41.479Z,19.3
2017-06-24T07:57:51.411Z,19.27
2017-06-24T07:59:01.650Z,19.24
2017-06-24T08:00:12.140Z,19.23
2017-06-24T08:01:22.378Z,19.16
2017-06-24T08:02:32.619Z,19.19
2017-06-24T08:03:42.861Z,19.19
2017-06-24T08:04:53.093Z,19.08
2017-06-24T08:06:03.593Z,19.22
2017-06-24T08:07:13.579Z,19.32
2017-06-24T08:08:23.826Z,19.26
2017-06-24T08:09:33.767Z,19.27
2017-06-24T08:10:44.002Z,19.38
2017-06-24T08:11:54.501Z,19.3
2017-06-24T08:13:04.751Z,19.35
2017-06-24T08:14:14.983Z,19.34
2017-06-24T08:15:25.222Z,19.32
2017-06-24T08:16:35.487Z,19.34
2017-06-24T08:17:45.668Z,19.32
2017-06-24T08:18:55.906Z,19.37
2017-06-24T08:20:05.836Z,19.29
2017-06-24T08:21:16.105Z,19.35
2017-06-24T08:22:26.352Z,19.42
2017-06-24T08:23:36.833Z,19.47
2017-06-24T08:24:47.074Z,19.45
2017-06-24T08:25:57.333Z,19.62
2017-06-24T08:27:07.570Z,19.48
2017-06-24T08:28:17.807Z,19.53
2017-06-24T08:29:27.990Z,19.55
2017-06-24T08:30:38.244Z,19.52
2017-06-24T08:31:48.481Z,19.57
2017-06-24T08:32:58.417Z,19.63
2017-06-24T08:34:08.674Z,19.6
2017-06-24T08:35:18.242Z,19.62
2017-06-24T08:36:28.477Z,19.64
2017-06-24T08:37:38.409Z,19.59
2017-06-24T08:38:48.657Z,19.59
2017-06-24T08:39:58.899Z,19.52
2017-06-24T08:41:09.441Z,19.52
2017-06-24T08:42:19.371Z,19.6
2017-06-24T08:43:28.994Z,19.59
2017-06-24T08:44:39.236Z,19.42
2017-06-24T08:45:49.494Z,19.55
2017-06-24T08:46:59.999Z,19.52
2017-06-24T08:48:09.619Z,19.55
2017-06-24T08:49:19.859Z,19.59
2017-06-24T08:50:30.113Z,19.62
2017-06-24T08:51:40.351Z,19.67
2017-06-24T08:52:50.525Z,19.7
2017-06-24T08:54:00.770Z,19.84
2017-06-24T08:55:11.012Z,19.77
2017-06-24T08:56:20.952Z,19.71
2017-06-24T08:57:31.211Z,19.85
2017-06-24T08:58:41.712Z,19.85
2017-06-24T08:59:51.644Z,19.87
2017-06-24T09:01:01.585Z,20.02
2017-06-24T09:02:11.838Z,20
2017-06-24T09:03:21.766Z,19.99
2017-06-24T09:04:31.649Z,19.97
2017-06-24T09:05:41.906Z,20.07
2017-06-24T09:06:51.847Z,20.17
2017-06-24T09:08:01.793Z,20.21
2017-06-24T09:09:12.033Z,20.19
2017-06-24T09:10:22.532Z,20.22
2017-06-24T09:11:32.777Z,20.34
2017-06-24T09:12:42.727Z,20.33
2017-06-24T09:13:52.969Z,20.39
2017-06-24T09:15:03.216Z,20.53
2017-06-24T09:16:13.723Z,20.73
2017-06-24T09:17:23.668Z,20.86
2017-06-24T09:18:33.294Z,21.01
2017-06-24T09:19:43.254Z,20.9
2017-06-24T09:20:53.498Z,20.93
2017-06-24T09:22:03.678Z,20.88
2017-06-24T09:23:13.942Z,21.05
2017-06-24T09:24:24.185Z,21.03
2017-06-24T09:25:34.450Z,21.19
2017-06-24T09:26:44.692Z,21.28
2017-06-24T09:27:55.188Z,21.17
2017-06-24T09:29:05.425Z,21.13
2017-06-24T09:30:15.667Z,21.04
2017-06-24T09:31:25.910Z,21.13
2017-06-24T09:32:35.841Z,21.08
2017-06-24T09:33:46.336Z,21.01
2017-06-24T09:34:56.576Z,21.08
2017-06-24T09:36:06.823Z,21.11
2017-06-24T09:37:16.750Z,21.22
2017-06-24T09:38:26.990Z,21.28
2017-06-24T09:39:37.173Z,21.25
2017-06-24T09:40:46.804Z,21.22
2017-06-24T09:41:56.739Z,21.29
2017-06-24T09:43:06.361Z,21.3
2017-06-24T09:44:16.306Z,21.2
2017-06-24T09:45:26.485Z,21.29
2017-06-24T09:46:36.440Z,21.4
2017-06-24T09:47:46.371Z,21.25
2017-06-24T09:48:56.328Z,21.28
2017-06-24T09:50:06.569Z,21.26
2017-06-24T09:51:16.760Z,21.19
2017-06-24T09:52:26.688Z,21.25
2017-06-24T09:53:36.617Z,21.11
2017-06-24T09:54:46.860Z,21.17
2017-06-24T09:55:57.103Z,21.32
2017-06-24T09:57:06.994Z,21.33
2017-06-24T09:58:16.624Z,21.35
2017-06-24T09:59:26.862Z,21.47
2017-06-24T10:00:37.109Z,21.58
2017-06-24T10:01:47.358Z,21.68
2017-06-24T10:02:57.845Z,21.65
2017-06-24T10:04:08.096Z,21.7
2017-06-24T10:05:18.342Z,21.65
2017-06-24T10:06:28.288Z,21.66
2017-06-24T10:07:38.525Z,21.63
2017-06-24T10:08:49.017Z,21.72
2017-06-24T10:09:58.964Z,21.75
2017-06-24T10:11:09.206Z,21.69
2017-06-24T10:12:19.140Z,21.6
2017-06-24T10:13:29.378Z,21.59
2017-06-24T10:14:39.261Z,21.62
2017-06-24T10:15:48.890Z,21.66
2017-06-24T10:16:59.148Z,21.66
2017-06-24T10:18:09.085Z,21.65
2017-06-24T10:19:19.328Z,21.65
2017-06-24T10:20:29.824Z,21.66
2017-06-24T10:21:39.770Z,21.69
2017-06-24T10:22:50.015Z,21.8
2017-06-24T10:24:00.264Z,21.65
2017-06-24T10:25:10.508Z,21.7
2017-06-24T10:26:20.682Z,21.72
2017-06-24T10:27:30.621Z,21.65
2017-06-24T10:28:40.553Z,21.69
2017-06-24T10:29:50.807Z,21.59
2017-06-24T10:31:00.750Z,21.75
2017-06-24T10:32:11.253Z,21.7
2017-06-24T10:33:21.486Z,21.75
2017-06-24T10:34:31.425Z,21.65
2017-06-24T10:35:41.658Z,21.59
2017-06-24T10:36:51.909Z,21.6
2017-06-24T10:38:02.097Z,21.65
2017-06-24T10:39:12.032Z,21.68
2017-06-24T10:40:22.264Z,21.6
2017-06-24T10:41:32.524Z,21.65
2017-06-24T10:42:42.771Z,21.59
2017-06-24T10:43:52.952Z,21.66
2017-06-24T10:45:02.900Z,21.63
2017-06-24T10:46:13.140Z,21.59
2017-06-24T10:47:23.078Z,21.56
2017-06-24T10:48:33.324Z,21.68
2017-06-24T10:49:43.824Z,21.72
2017-06-24T10:50:54.066Z,21.58
2017-06-24T10:52:04.009Z,21.54
2017-06-24T10:53:13.946Z,21.6
2017-06-24T10:54:24.180Z,21.72
2017-06-24T10:55:34.683Z,21.75
2017-06-24T10:56:44.997Z,21.8
2017-06-24T10:57:54.952Z,21.8
2017-06-24T10:59:04.604Z,21.85
2017-06-24T11:00:14.542Z,21.89
2017-06-24T11:01:25.033Z,21.88
2017-06-24T11:02:35.284Z,21.96
2017-06-24T11:03:45.544Z,22.03
2017-06-24T11:04:55.784Z,22.16
2017-06-24T11:06:06.034Z,22.07
2017-06-24T11:07:16.529Z,22.14
2017-06-24T11:08:26.770Z,22.1
2017-06-24T11:09:37.024Z,22.14
2017-06-24T11:10:47.275Z,22.15
2017-06-24T11:11:57.517Z,22.15
2017-06-24T11:13:08.026Z,22.15
2017-06-24T11:14:18.271Z,22.31
2017-06-24T11:15:28.529Z,22.33
2017-06-24T11:16:38.460Z,22.31
2017-06-24T11:17:48.707Z,22.46
2017-06-24T11:18:59.201Z,22.37
2017-06-24T11:20:09.177Z,22.34
2017-06-24T11:21:19.126Z,22.28
2017-06-24T11:22:29.098Z,22.36
2017-06-24T11:23:39.352Z,22.37
2017-06-24T11:24:49.853Z,22.38
2017-06-24T11:25:59.797Z,22.44
2017-06-24T11:27:10.035Z,22.4
2017-06-24T11:28:19.969Z,22.43
2017-06-24T11:29:30.216Z,22.51
2017-06-24T11:30:40.722Z,22.55
2017-06-24T11:31:50.662Z,22.52
2017-06-24T11:33:00.599Z,22.58
2017-06-24T11:34:10.849Z,22.53
2017-06-24T11:35:20.782Z,22.47
2017-06-24T11:36:31.281Z,22.49
2017-06-24T11:37:41.220Z,22.41
2017-06-24T11:38:51.467Z,22.31
2017-06-24T11:40:01.711Z,22.28
2017-06-24T11:41:11.998Z,22.21
2017-06-24T11:42:22.172Z,22.16
2017-06-24T11:43:32.411Z,22.18
2017-06-24T11:44:42.662Z,22.15
2017-06-24T11:45:52.908Z,22.01
2017-06-24T11:47:02.232Z,21.91
2017-06-24T11:48:12.412Z,21.92
2017-06-24T11:49:22.346Z,21.92
2017-06-24T11:50:31.979Z,21.84
2017-06-24T11:51:41.909Z,21.91
2017-06-24T11:52:51.548Z,21.84
2017-06-24T11:54:02.052Z,21.81
2017-06-24T11:55:12.288Z,21.89
2017-06-24T11:56:22.533Z,21.83
2017-06-24T11:57:32.500Z,21.75
2017-06-24T11:58:42.739Z,21.7
2017-06-24T11:59:52.612Z,21.69
2017-06-24T12:01:02.849Z,21.74
2017-06-24T12:02:12.794Z,21.74
2017-06-24T12:03:23.055Z,21.91
2017-06-24T12:04:33.027Z,21.8
2017-06-24T12:05:43.320Z,21.85
2017-06-24T12:06:53.555Z,21.83
2017-06-24T12:08:03.792Z,22
2017-06-24T12:09:14.041Z,22
2017-06-24T12:10:23.994Z,22.01
2017-06-24T12:11:34.177Z,22.04
2017-06-24T12:12:43.809Z,21.85
2017-06-24T12:13:54.051Z,21.74
2017-06-24T12:15:04.298Z,21.77
2017-06-24T12:16:14.549Z,21.75
2017-06-24T12:17:25.050Z,21.75
2017-06-24T12:18:35.314Z,21.66
2017-06-24T12:19:45.566Z,21.68
2017-06-24T12:20:55.806Z,21.66
2017-06-24T12:22:05.748Z,21.72
2017-06-24T12:23:16.263Z,21.62
2017-06-24T12:24:26.511Z,21.58
2017-06-24T12:25:36.750Z,21.63
2017-06-24T12:26:46.988Z,21.62
2017-06-24T12:27:57.246Z,21.66
2017-06-24T12:29:06.823Z,21.77
2017-06-24T12:30:16.445Z,21.81
2017-06-24T12:31:26.383Z,21.8
2017-06-24T12:32:36.325Z,21.78
2017-06-24T12:33:46.266Z,21.84
2017-06-24T12:34:56.770Z,21.89
2017-06-24T12:36:06.398Z,22
2017-06-24T12:37:16.648Z,21.97
2017-06-24T12:38:26.276Z,22.01
2017-06-24T12:39:36.525Z,22.01
2017-06-24T12:40:47.030Z,22.07
2017-06-24T12:41:56.973Z,22.21
2017-06-24T12:43:07.220Z,22.14
2017-06-24T12:44:17.458Z,22.3
2017-06-24T12:45:27.713Z,22.34
2017-06-24T12:46:37.902Z,22.26
2017-06-24T12:47:48.140Z,22.38
2017-06-24T12:48:58.083Z,22.41
2017-06-24T12:50:07.701Z,22.55
2017-06-24T12:51:17.362Z,22.55
2017-06-24T12:52:27.553Z,22.56
2017-06-24T12:53:37.498Z,22.56
2017-06-24T12:54:47.745Z,22.51
2017-06-24T12:55:57.688Z,22.61
2017-06-24T12:57:07.936Z,22.59
2017-06-24T12:58:18.451Z,22.4
2017-06-24T12:59:28.382Z,22.41
2017-06-24T13:00:38.617Z,22.4
2017-06-24T13:01:48.862Z,22.47
2017-06-24T13:02:59.133Z,22.51
2017-06-24T13:04:09.648Z,22.58
2017-06-24T13:05:19.917Z,22.51
2017-06-24T13:06:30.180Z,22.65
2017-06-24T13:07:40.441Z,22.8
2017-06-24T13:08:50.683Z,22.88
2017-06-24T13:10:00.918Z,22.8
2017-06-24T13:11:10.539Z,22.86
2017-06-24T13:12:20.780Z,22.78
2017-06-24T13:13:31.011Z,22.83
2017-06-24T13:14:41.263Z,22.74
2017-06-24T13:15:51.786Z,22.71
2017-06-24T13:17:01.732Z,22.76
2017-06-24T13:18:11.986Z,22.89
2017-06-24T13:19:22.261Z,23.01
2017-06-24T13:20:32.213Z,23.1
2017-06-24T13:21:42.405Z,23.36
2017-06-24T13:22:52.348Z,23.51
2017-06-24T13:24:02.586Z,23.48
2017-06-24T13:25:12.217Z,23.66
2017-06-24T13:26:21.852Z,23.55
2017-06-24T13:27:32.367Z,23.45
2017-06-24T13:28:42.304Z,23.51
2017-06-24T13:29:52.551Z,23.55
2017-06-24T13:31:02.797Z,23.81
2017-06-24T13:32:13.059Z,24.1
2017-06-24T13:33:22.938Z,24.07
2017-06-24T13:34:33.207Z,24.06
2017-06-24T13:35:43.447Z,23.88
2017-06-24T13:36:53.386Z,23.71
2017-06-24T13:38:03.337Z,23.56
2017-06-24T13:39:13.831Z,23.63
2017-06-24T13:40:24.096Z,23.73
2017-06-24T13:41:34.032Z,23.77
2017-06-24T13:42:44.319Z,23.94
2017-06-24T13:43:54.265Z,24.1
2017-06-24T13:45:04.775Z,24.18
2017-06-24T13:46:14.724Z,24.06
2017-06-24T13:47:24.974Z,23.92
2017-06-24T13:48:35.224Z,23.56
2017-06-24T13:49:45.257Z,23.49
2017-06-24T13:50:55.762Z,23.44
2017-06-24T13:52:05.734Z,23.49
2017-06-24T13:53:16.027Z,23.63
2017-06-24T13:54:25.994Z,23.63
2017-06-24T13:55:36.239Z,23.54
2017-06-24T13:56:46.427Z,23.52
2017-06-24T13:57:56.897Z,23.4
2017-06-24T13:59:06.841Z,23.34
2017-06-24T14:00:17.101Z,23.45
2017-06-24T14:01:27.357Z,23.23
2017-06-24T14:02:37.892Z,23.21
2017-06-24T14:03:48.144Z,23.25
2017-06-24T14:04:58.097Z,23.2
2017-06-24T14:06:07.725Z,23.32
2017-06-24T14:07:17.675Z,23.37
2017-06-24T14:08:27.890Z,23.59
2017-06-24T14:09:38.152Z,23.55
2017-06-24T14:10:48.089Z,23.52
2017-06-24T14:11:58.034Z,23.48
2017-06-24T14:13:07.967Z,23.51
2017-06-24T14:14:18.481Z,23.51
2017-06-24T14:15:28.745Z,23.56
2017-06-24T14:16:38.686Z,23.56
2017-06-24T14:17:48.978Z,23.7
2017-06-24T14:18:59.220Z,23.76
2017-06-24T14:20:09.742Z,23.86
2017-06-24T14:21:19.991Z,24.06
2017-06-24T14:22:30.252Z,24.09
2017-06-24T14:23:39.912Z,24.36
2017-06-24T14:24:50.176Z,24.5
2017-06-24T14:26:00.681Z,24.46
2017-06-24T14:27:10.926Z,24.43
2017-06-24T14:28:21.174Z,24.21
2017-06-24T14:29:31.423Z,24.04
2017-06-24T14:30:41.674Z,23.94
2017-06-24T14:31:52.206Z,23.71
2017-06-24T14:33:02.473Z,23.81
2017-06-24T14:34:12.726Z,23.94
2017-06-24T14:35:22.968Z,23.99
2017-06-24T14:36:33.245Z,23.71
2017-06-24T14:37:43.425Z,23.58
2017-06-24T14:38:53.373Z,23.52
2017-06-24T14:40:03.648Z,23.29
2017-06-24T14:41:13.608Z,23.25
2017-06-24T14:42:23.543Z,23.32
2017-06-24T14:43:34.039Z,23.28
2017-06-24T14:44:43.978Z,23.26
2017-06-24T14:45:54.241Z,23.25
2017-06-24T14:47:04.502Z,23.16
2017-06-24T14:48:14.751Z,22.96
2017-06-24T14:49:25.250Z,23.1
2017-06-24T14:50:35.195Z,23.02
2017-06-24T14:51:45.132Z,23.02
2017-06-24T14:52:55.071Z,22.93
2017-06-24T14:54:05.548Z,22.91
2017-06-24T14:55:16.210Z,22.91
2017-06-24T14:56:26.456Z,22.83
2017-06-24T14:57:36.426Z,22.89
2017-06-24T14:58:46.422Z,22.93
2017-06-24T14:59:56.683Z,22.91
2017-06-24T15:01:06.658Z,22.91
2017-06-24T15:02:16.610Z,22.96
2017-06-24T15:03:26.862Z,22.96
2017-06-24T15:04:37.298Z,23.02
2017-06-24T15:05:47.804Z,23.01
2017-06-24T15:06:57.428Z,23.01